Time;durP1;ratioP1;P1;durP2;ratioP2;P2;SDS_P1;SDS_P2;PMS_P1;PMS_P2;Temp;Humidity;BMP_temperature;BMP_pressure;BME280_temperature;BME280_humidity;BME280_pressure;Samples;Min_cycle;Max_cycle;Signal;HPM_P1;HPM_P2
2023/06/18 00:02:07;;;;;;;;;14.25;13.00;;;;;16.71;47.17;99659.94;5097079;28;8975;-57
2023/06/18 00:04:35;;;;;;;;;12.75;9.75;;;;;16.68;46.96;99662.13;5096663;28;9592;-56
2023/06/18 00:07:03;;;;;;;;;12.50;11.25;;;;;16.67;47.11;99666.69;5096727;28;9669;-57
2023/06/18 00:09:31;;;;;;;;;15.75;12.50;;;;;16.63;46.55;99661.81;5097212;28;8881;-57
2023/06/18 00:12:00;;;;;;;;;10.50;10.00;;;;;16.62;46.41;99660.97;5097057;28;8848;-57
2023/06/18 00:14:28;;;;;;;;;13.00;12.75;;;;;16.59;46.84;99658.63;5095758;28;9572;-57
2023/06/18 00:16:55;;;;;;;;;16.00;15.50;;;;;16.57;46.78;99655.22;5096027;28;8829;-58
2023/06/18 00:19:24;;;;;;;;;12.50;10.50;;;;;16.53;46.99;99659.28;5097218;28;8861;-56
2023/06/18 00:21:51;;;;;;;;;14.50;14.00;;;;;16.50;47.25;99664.16;5096782;28;8941;-58
2023/06/18 00:24:19;;;;;;;;;13.50;12.75;;;;;16.48;47.17;99655.41;5096341;28;8833;-57
2023/06/18 00:26:47;;;;;;;;;15.25;14.00;;;;;16.48;47.63;99663.47;5096787;28;8829;-58
2023/06/18 00:29:15;;;;;;;;;7.50;7.50;;;;;16.46;47.13;99666.31;5096387;28;8821;-58
2023/06/18 00:31:43;;;;;;;;;15.00;14.00;;;;;16.47;47.60;99664.50;5096121;28;8837;-57
2023/06/18 00:34:12;;;;;;;;;12.50;11.50;;;;;16.46;47.18;99660.09;5096429;28;8853;-57
2023/06/18 00:36:43;;;;;;;;;10.25;9.75;;;;;16.45;47.43;99661.97;5096124;28;8853;-59
2023/06/18 00:39:11;;;;;;;;;14.00;13.50;;;;;16.44;46.85;99660.28;5096077;28;8857;-59
2023/06/18 00:41:38;;;;;;;;;12.00;12.00;;;;;16.44;47.32;99664.81;5096618;28;8829;-59
2023/06/18 00:44:08;;;;;;;;;9.25;8.50;;;;;16.42;47.24;99664.97;5096760;28;8825;-58
2023/06/18 00:46:36;;;;;;;;;15.00;15.00;;;;;16.41;47.41;99668.66;5096408;28;8833;-58
2023/06/18 00:49:04;;;;;;;;;16.00;13.00;;;;;16.40;47.45;99663.47;5096806;28;8845;-59
2023/06/18 00:51:34;;;;;;;;;18.25;14.50;;;;;16.38;47.41;99656.56;5096442;28;8848;-59
2023/06/18 00:54:01;;;;;;;;;11.50;9.50;;;;;16.35;47.49;99660.41;5096352;28;8849;-59
2023/06/18 00:56:29;;;;;;;;;18.75;15.75;;;;;16.28;47.88;99657.53;5096284;28;8857;-58
2023/06/18 00:58:57;;;;;;;;;16.50;14.25;;;;;16.23;47.54;99653.63;5095448;28;8825;-58
2023/06/18 01:01:25;;;;;;;;;15.50;12.50;;;;;16.14;47.98;99649.25;5096200;28;9011;-59
2023/06/18 01:03:56;;;;;;;;;6.25;5.00;;;;;16.06;47.82;99659.13;5096698;28;8822;-59
2023/06/18 01:06:26;;;;;;;;;12.00;12.00;;;;;15.96;47.94;99653.06;5096595;28;8849;-58
2023/06/18 01:08:55;;;;;;;;;18.75;16.00;;;;;15.85;48.29;99656.06;5096453;28;8895;-57
2023/06/18 01:11:25;;;;;;;;;15.25;13.25;;;;;15.75;48.40;99647.28;5096511;28;8968;-59
2023/06/18 01:13:54;;;;;;;;;15.25;13.00;;;;;15.67;48.77;99657.97;5095213;28;8957;-57
2023/06/18 01:16:24;;;;;;;;;12.75;9.75;;;;;15.59;48.77;99648.06;5096121;28;8838;-58
2023/06/18 01:18:52;;;;;;;;;15.00;12.75;;;;;15.57;49.03;99646.53;5095238;28;8840;-58
2023/06/18 01:21:20;;;;;;;;;11.50;10.00;;;;;15.54;49.03;99650.38;5095976;28;8841;-59
2023/06/18 01:23:49;;;;;;;;;15.00;15.00;;;;;15.53;49.32;99646.00;5095830;28;9492;-57
2023/06/18 01:26:19;;;;;;;;;16.50;15.25;;;;;15.55;49.46;99643.19;5096165;28;8869;-58
2023/06/18 01:28:46;;;;;;;;;15.00;13.00;;;;;15.54;49.13;99649.56;5095671;28;8876;-59
2023/06/18 01:31:14;;;;;;;;;15.00;12.75;;;;;15.51;49.20;99642.66;5095775;28;8867;-59
2023/06/18 01:33:42;;;;;;;;;16.50;16.00;;;;;15.51;49.50;99636.44;5095912;28;8837;-59
2023/06/18 01:36:10;;;;;;;;;15.00;13.00;;;;;15.51;49.18;99636.44;5095602;28;8861;-59
2023/06/18 01:38:38;;;;;;;;;10.00;8.00;;;;;15.51;48.86;99633.75;5096057;28;8843;-59
2023/06/18 01:41:06;;;;;;;;;12.75;12.50;;;;;15.53;48.82;99631.75;5095641;28;8830;-59
2023/06/18 01:43:34;;;;;;;;;13.00;12.75;;;;;15.55;49.16;99637.81;5095610;28;8851;-58
2023/06/18 01:46:02;;;;;;;;;15.00;13.50;;;;;15.58;49.22;99637.47;5095946;28;8837;-58
2023/06/18 01:48:29;;;;;;;;;20.25;17.00;;;;;15.63;48.93;99632.47;5094729;28;8837;-59
2023/06/18 01:50:57;;;;;;;;;16.00;16.00;;;;;15.66;48.83;99632.13;5094901;28;8841;-59
2023/06/18 01:53:25;;;;;;;;;16.00;13.25;;;;;15.67;48.54;99636.50;5095722;28;8849;-59
2023/06/18 01:55:53;;;;;;;;;7.00;6.75;;;;;15.70;48.89;99636.19;5095390;28;8857;-58
2023/06/18 01:58:21;;;;;;;;;12.75;12.75;;;;;15.69;48.80;99634.53;5095979;28;8857;-58
2023/06/18 02:00:51;;;;;;;;;17.25;15.75;;;;;15.67;49.19;99636.50;5095074;28;8855;-58
2023/06/18 02:03:19;;;;;;;;;17.75;16.00;;;;;15.64;48.49;99629.59;5095334;28;8825;-59
2023/06/18 02:05:46;;;;;;;;;17.50;16.00;;;;;15.63;49.22;99627.94;5095502;28;8847;-58
2023/06/18 02:08:14;;;;;;;;;15.00;13.50;;;;;15.61;48.96;99632.63;5095088;28;8821;-59
2023/06/18 02:10:42;;;;;;;;;18.25;15.25;;;;;15.53;49.36;99629.06;5095921;28;8841;-59
2023/06/18 02:13:10;;;;;;;;;17.25;15.50;;;;;15.44;49.58;99640.75;5095385;28;8855;-59
2023/06/18 02:15:37;;;;;;;;;16.25;15.75;;;;;15.35;49.62;99631.00;5094639;28;8801;-58
2023/06/18 02:18:05;;;;;;;;;10.75;9.50;;;;;15.26;49.54;99640.78;5095464;28;8956;-58
2023/06/18 02:20:33;;;;;;;;;17.50;15.75;;;;;15.17;50.01;99635.56;5095577;28;8860;-59
2023/06/18 02:23:01;;;;;;;;;14.25;14.00;;;;;15.09;50.22;99630.16;5095762;28;9479;-58
2023/06/18 02:25:29;;;;;;;;;11.50;10.00;;;;;15.01;50.54;99638.13;5094595;28;8865;-59
2023/06/18 02:27:58;;;;;;;;;11.50;11.50;;;;;14.94;50.40;99637.09;5098455;28;8856;-59
2023/06/18 02:30:25;;;;;;;;;15.00;14.50;;;;;14.88;50.33;99637.69;5099129;28;8841;-58
2023/06/18 02:32:53;;;;;;;;;16.75;14.25;;;;;14.83;50.08;99631.97;5098771;28;8855;-60
2023/06/18 02:35:21;;;;;;;;;15.25;15.25;;;;;14.77;50.67;99636.09;5099413;28;8829;-59
2023/06/18 02:37:50;;;;;;;;;21.75;18.25;;;;;14.74;50.84;99633.75;5098763;28;8841;-57
2023/06/18 02:40:17;;;;;;;;;17.25;14.50;;;;;14.72;50.59;99633.03;5098681;28;8821;-58
2023/06/18 02:42:48;;;;;;;;;18.00;17.00;;;;;14.70;50.86;99632.38;5098683;28;8848;-57
2023/06/18 02:45:16;;;;;;;;;17.75;16.00;;;;;14.71;51.00;99620.66;5098517;28;8825;-58
2023/06/18 02:47:44;;;;;;;;;15.25;15.00;;;;;14.72;51.19;99627.69;5099471;28;8907;-59
2023/06/18 02:50:12;;;;;;;;;14.75;14.00;;;;;14.74;50.82;99627.53;5099417;28;9538;-59
2023/06/18 02:52:39;;;;;;;;;15.50;12.75;;;;;14.73;50.25;99624.00;5099015;28;8856;-59
2023/06/18 02:55:07;;;;;;;;;18.00;15.75;;;;;14.75;50.13;99615.81;5098243;28;8829;-60
2023/06/18 02:57:35;;;;;;;;;12.25;10.50;;;;;14.73;50.67;99607.91;5098792;28;8837;-60
2023/06/18 03:00:04;;;;;;;;;15.25;14.00;;;;;14.73;50.37;99601.72;5099277;28;8833;-60
2023/06/18 03:02:32;;;;;;;;;17.25;16.00;;;;;14.70;50.70;99610.94;5097854;28;8904;-59
2023/06/18 03:04:59;;;;;;;;;18.25;13.50;;;;;14.70;50.56;99604.72;5098718;28;8858;-59
2023/06/18 03:07:28;;;;;;;;;17.50;16.00;;;;;14.69;50.73;99605.72;5098103;28;8849;-59
2023/06/18 03:09:55;;;;;;;;;12.50;11.00;;;;;14.68;50.45;99612.06;5098648;28;8833;-60
2023/06/18 03:12:24;;;;;;;;;18.25;18.25;;;;;14.68;50.62;99615.59;5098575;28;8987;-59
2023/06/18 03:14:52;;;;;;;;;16.00;15.75;;;;;14.66;50.31;99612.22;5098802;28;8841;-59
2023/06/18 03:17:19;;;;;;;;;10.50;10.50;;;;;14.65;51.10;99610.53;5098487;28;8847;-59
2023/06/18 03:19:47;;;;;;;;;10.00;8.50;;;;;14.65;50.62;99610.53;5097603;28;8825;-59
2023/06/18 03:22:15;;;;;;;;;24.00;19.50;;;;;14.63;50.86;99609.88;5098498;28;8848;-59
2023/06/18 03:24:43;;;;;;;;;12.00;12.00;;;;;14.64;50.41;99602.69;5099135;28;8837;-59
2023/06/18 03:27:10;;;;;;;;;13.00;13.00;;;;;14.66;50.74;99606.03;5098219;28;8872;-59
2023/06/18 03:29:38;;;;;;;;;15.00;11.50;;;;;14.70;51.00;99607.38;5098829;28;8853;-59
2023/06/18 03:32:06;;;;;;;;;16.50;16.00;;;;;14.72;50.90;99608.09;5097897;28;9495;-59
2023/06/18 03:34:35;;;;;;;;;16.00;15.75;;;;;14.75;50.78;99605.94;5098084;28;8837;-59
2023/06/18 03:37:03;;;;;;;;;16.75;15.75;;;;;14.78;50.81;99610.97;5098074;28;8833;-59
2023/06/18 03:39:31;;;;;;;;;13.00;12.00;;;;;14.80;51.02;99608.16;5097994;28;8875;-59
2023/06/18 03:41:59;;;;;;;;;9.50;9.00;;;;;14.83;50.97;99607.81;5098119;28;8821;-59
2023/06/18 03:44:26;;;;;;;;;13.75;12.75;;;;;14.86;50.52;99611.03;5098363;28;8840;-58
2023/06/18 03:46:54;;;;;;;;;15.25;13.00;;;;;14.91;50.77;99610.56;5098178;28;8825;-59
2023/06/18 03:49:22;;;;;;;;;9.75;9.75;;;;;14.97;50.01;99615.31;5097576;28;8829;-59
2023/06/18 03:51:51;;;;;;;;;15.75;14.50;;;;;15.03;50.44;99603.94;5097907;28;8848;-59
2023/06/18 03:54:18;;;;;;;;;13.00;12.75;;;;;15.11;50.33;99622.78;5097219;28;8851;-60
2023/06/18 03:56:46;;;;;;;;;10.25;9.75;;;;;15.18;50.00;99624.66;5097426;28;8861;-59
2023/06/18 03:59:13;;;;;;;;;16.00;12.50;;;;;15.25;49.71;99624.88;5097494;28;8861;-59
2023/06/18 04:01:42;;;;;;;;;16.00;16.00;;;;;15.29;49.69;99631.59;5098164;28;8840;-60
2023/06/18 04:04:10;;;;;;;;;12.00;10.00;;;;;15.31;49.63;99613.50;5097289;28;8851;-59
2023/06/18 04:06:40;;;;;;;;;10.50;10.00;;;;;15.33;49.68;99611.53;5097234;28;8825;-59
2023/06/18 04:09:08;;;;;;;;;15.50;12.50;;;;;15.36;50.10;99611.19;5097049;28;8844;-60
2023/06/18 04:11:36;;;;;;;;;17.00;16.00;;;;;15.38;50.16;99620.78;5096356;28;8859;-59
2023/06/18 04:14:04;;;;;;;;;9.75;9.00;;;;;15.44;49.92;99624.66;5097137;28;8855;-59
2023/06/18 04:16:31;;;;;;;;;19.50;19.50;;;;;15.49;49.75;99627.72;5097227;28;9776;-59
2023/06/18 04:19:00;;;;;;;;;15.25;13.50;;;;;15.54;50.03;99622.72;5097294;28;8845;-60
2023/06/18 04:21:28;;;;;;;;;12.50;12.00;;;;;15.61;49.62;99624.56;5097531;28;8875;-58
2023/06/18 04:23:56;;;;;;;;;15.00;13.50;;;;;15.68;49.36;99622.06;5097458;28;8829;-59
2023/06/18 04:26:24;;;;;;;;;12.25;11.75;;;;;15.75;49.28;99626.66;5096725;28;8877;-59
2023/06/18 04:28:52;;;;;;;;;17.00;15.25;;;;;15.84;49.34;99628.34;5096562;28;8869;-59
2023/06/18 04:31:19;;;;;;;;;16.50;16.50;;;;;15.92;49.12;99628.38;5095997;28;8864;-59
2023/06/18 04:33:47;;;;;;;;;12.00;11.00;;;;;15.99;49.35;99617.84;5096083;28;8814;-59
2023/06/18 04:36:16;;;;;;;;;15.00;12.75;;;;;16.06;49.33;99616.16;5096676;28;9530;-59
2023/06/18 04:38:44;;;;;;;;;12.00;11.00;;;;;16.12;49.30;99627.09;5096754;28;9507;-59
2023/06/18 04:41:11;;;;;;;;;13.00;13.00;;;;;16.17;49.09;99625.59;5096609;28;8895;-59
2023/06/18 04:43:39;;;;;;;;;16.25;13.50;;;;;16.22;48.75;99626.94;5097172;28;8861;-58
2023/06/18 04:46:06;;;;;;;;;17.75;15.50;;;;;16.26;49.10;99626.47;5096420;28;8829;-59
2023/06/18 04:48:35;;;;;;;;;11.00;9.75;;;;;16.31;48.77;99621.41;5095839;28;8843;-59
2023/06/18 04:51:03;;;;;;;;;15.25;15.25;;;;;16.35;48.93;99620.91;5096234;28;8845;-59
2023/06/18 04:53:30;;;;;;;;;15.00;14.00;;;;;16.40;49.08;99623.16;5096284;28;8849;-59
2023/06/18 04:55:58;;;;;;;;;15.25;14.50;;;;;16.45;48.57;99629.69;5096247;28;8877;-59
2023/06/18 04:58:26;;;;;;;;;12.50;11.50;;;;;16.50;48.49;99624.63;5096470;28;8951;-59
2023/06/18 05:00:53;;;;;;;;;19.25;16.00;;;;;16.61;48.54;99624.31;5096378;28;9558;-59
2023/06/18 05:03:21;;;;;;;;;13.00;13.00;;;;;16.73;48.34;99622.13;5095269;28;8863;-58
2023/06/18 05:05:49;;;;;;;;;15.00;13.50;;;;;16.84;48.70;99627.16;5095613;28;8814;-59
2023/06/18 05:08:17;;;;;;;;;9.50;9.25;;;;;16.97;48.65;99625.66;5096218;28;8855;-58
2023/06/18 05:10:44;;;;;;;;;18.00;15.75;;;;;17.08;48.27;99627.97;5096254;28;8837;-59
2023/06/18 05:13:12;;;;;;;;;20.00;17.25;;;;;17.15;47.95;99625.47;5095717;28;8868;-59
2023/06/18 05:15:40;;;;;;;;;11.00;11.00;;;;;17.21;48.42;99628.31;5095453;28;8934;-59
2023/06/18 05:18:08;;;;;;;;;19.75;16.25;;;;;17.28;48.20;99625.75;5095432;28;8850;-58
2023/06/18 05:20:36;;;;;;;;;11.00;10.00;;;;;17.36;48.27;99617.66;5096398;28;8955;-58
2023/06/18 05:23:03;;;;;;;;;18.25;18.00;;;;;17.43;47.71;99621.38;5096306;28;8848;-59
2023/06/18 05:25:33;;;;;;;;;17.00;15.00;;;;;17.52;48.06;99620.31;5095519;28;8853;-57
2023/06/18 05:28:01;;;;;;;;;15.25;14.75;;;;;17.63;47.27;99623.47;5095942;28;8849;-59
2023/06/18 05:30:29;;;;;;;;;12.75;11.50;;;;;17.77;47.45;99624.63;5095345;28;8837;-59
2023/06/18 05:32:56;;;;;;;;;18.75;15.25;;;;;17.91;47.34;99635.47;5095285;28;8859;-58
2023/06/18 05:35:24;;;;;;;;;18.50;16.00;;;;;18.04;47.01;99630.38;5094883;28;8847;-59
2023/06/18 05:37:52;;;;;;;;;13.00;12.00;;;;;18.20;46.87;99624.88;5095717;28;8868;-60
2023/06/18 05:40:20;;;;;;;;;16.50;15.75;;;;;18.39;46.63;99634.41;5095083;28;8837;-58
2023/06/18 05:42:48;;;;;;;;;14.00;13.00;;;;;18.53;46.39;99639.03;5095945;28;8847;-59
2023/06/18 05:45:16;;;;;;;;;12.25;10.50;;;;;18.66;46.31;99636.56;5095588;28;8872;-60
2023/06/18 05:47:43;;;;;;;;;18.75;18.00;;;;;18.78;46.82;99635.94;5095053;28;8856;-59
2023/06/18 05:50:11;;;;;;;;;18.75;16.00;;;;;18.93;46.19;99642.22;5095753;28;8845;-59
2023/06/18 05:52:39;;;;;;;;;16.00;16.00;;;;;19.06;46.17;99637.03;5094705;28;8856;-59
2023/06/18 05:55:07;;;;;;;;;13.00;11.80;;;;;19.21;46.14;99640.63;5095005;28;8860;-59
2023/06/18 05:57:36;;;;;;;;;21.00;18.00;;;;;19.37;45.94;99635.06;5095090;28;8863;-60
2023/06/18 06:00:04;;;;;;;;;16.00;15.60;;;;;19.52;45.53;99633.22;5075136;28;8815;-59
2023/06/18 06:02:31;;;;;;;;;15.60;14.60;;;;;19.69;45.68;99640.09;5077774;28;8865;-59
2023/06/18 06:04:59;;;;;;;;;18.80;18.00;;;;;19.86;45.69;99633.47;5079262;28;8847;-59
2023/06/18 06:07:27;;;;;;;;;16.40;14.40;;;;;20.02;45.36;99635.13;5078475;28;8843;-59
2023/06/18 06:09:55;;;;;;;;;14.20;12.00;;;;;20.17;44.97;99634.09;5078819;28;8962;-60
2023/06/18 06:12:22;;;;;;;;;17.40;15.40;;;;;20.30;44.80;99634.25;5078703;28;8831;-60
2023/06/18 06:14:50;;;;;;;;;16.60;16.20;;;;;20.43;44.71;99634.41;5078828;28;8839;-60
2023/06/18 06:17:18;;;;;;;;;14.60;13.60;;;;;20.56;44.97;99633.69;5079315;28;8970;-60
2023/06/18 06:19:46;;;;;;;;;13.80;13.60;;;;;20.66;45.13;99635.06;5079110;28;8843;-60
2023/06/18 06:22:14;;;;;;;;;19.20;17.20;;;;;20.76;44.72;99635.56;5078793;28;8835;-59
2023/06/18 06:24:42;;;;;;;;;18.60;17.20;;;;;20.85;44.73;99635.22;5079421;28;8840;-60
2023/06/18 06:27:10;;;;;;;;;16.60;14.40;;;;;20.95;44.80;99634.94;5079281;28;8855;-60
2023/06/18 06:29:38;;;;;;;;;15.00;13.60;;;;;21.03;44.35;99634.78;5095935;28;9502;-58
2023/06/18 06:32:05;;;;;;;;;17.00;16.40;;;;;21.10;44.34;99638.41;5098450;28;8821;-58
2023/06/18 06:34:33;;;;;;;;;16.60;13.20;;;;;21.19;44.78;99637.22;5097780;28;8825;-58
2023/06/18 06:37:01;;;;;;;;;18.00;17.40;;;;;21.30;44.44;99642.06;5099281;28;8858;-57
2023/06/18 06:39:28;;;;;;;;;17.40;15.60;;;;;21.42;44.02;99635.09;5098788;28;8821;-58
2023/06/18 06:41:56;;;;;;;;;14.20;13.00;;;;;21.56;44.20;99623.28;5099108;28;8969;-58
2023/06/18 06:44:26;;;;;;;;;16.00;14.00;;;;;21.70;44.16;99620.47;5098830;28;8852;-58
2023/06/18 06:46:54;;;;;;;;;15.80;15.40;;;;;21.84;44.13;99626.78;5098974;28;8882;-58
2023/06/18 06:49:21;;;;;;;;;18.40;17.00;;;;;21.97;43.99;99632.28;5098293;28;8825;-57
2023/06/18 06:51:49;;;;;;;;;19.80;16.80;;;;;22.12;43.40;99631.13;5097945;28;8848;-57
2023/06/18 06:54:17;;;;;;;;;18.20;17.60;;;;;22.27;43.56;99623.66;5097765;28;8849;-58
2023/06/18 06:56:45;;;;;;;;;16.20;15.40;;;;;22.42;43.50;99626.22;5098131;28;8861;-58
2023/06/18 06:59:13;;;;;;;;;12.40;10.20;;;;;22.56;43.11;99634.19;5098850;28;8845;-58
2023/06/18 07:01:42;;;;;;;;;15.40;13.80;;;;;22.68;43.36;99634.44;5098222;28;8864;-57
2023/06/18 07:04:10;;;;;;;;;18.20;18.00;;;;;22.82;43.22;99630.66;5097753;28;8871;-58
2023/06/18 07:06:39;;;;;;;;;15.20;13.00;;;;;22.91;42.86;99632.16;5098056;28;8857;-58
2023/06/18 07:09:07;;;;;;;;;17.80;16.00;;;;;23.02;42.41;99637.78;5098284;28;8927;-58
2023/06/18 07:11:36;;;;;;;;;12.40;11.20;;;;;23.13;42.46;99636.34;5097831;28;8960;-58
2023/06/18 07:14:03;;;;;;;;;18.60;15.20;;;;;23.24;42.70;99639.28;5097679;28;8857;-57
2023/06/18 07:16:31;;;;;;;;;13.60;13.40;;;;;23.38;42.29;99630.03;5097625;28;8853;-58
2023/06/18 07:19:01;;;;;;;;;12.60;12.20;;;;;23.56;42.29;99637.56;5097658;28;8809;-57
2023/06/18 07:21:28;;;;;;;;;22.20;17.00;;;;;23.74;42.19;99626.88;5097769;28;8840;-58
2023/06/18 07:23:56;;;;;;;;;17.80;16.00;;;;;23.86;42.34;99623.28;5097749;28;8929;-58
2023/06/18 07:26:24;;;;;;;;;14.00;13.20;;;;;24.04;42.20;99630.75;5098345;28;8881;-58
2023/06/18 07:28:52;;;;;;;;;17.00;17.00;;;;;24.17;41.64;99630.69;5097908;28;8839;-57
2023/06/18 07:31:20;;;;;;;;;16.20;15.00;;;;;24.30;41.90;99633.34;5097469;28;8923;-58
2023/06/18 07:33:48;;;;;;;;;16.40;15.80;;;;;24.41;41.74;99624.50;5097324;28;8856;-56
2023/06/18 07:36:15;;;;;;;;;14.40;13.40;;;;;24.52;41.38;99631.97;5097095;28;8837;-58
2023/06/18 07:38:43;;;;;;;;;20.20;17.60;;;;;24.61;41.19;99625.25;5096921;28;8930;-58
2023/06/18 07:41:11;;;;;;;;;17.00;15.40;;;;;24.71;41.75;99620.16;5096640;28;8882;-58
2023/06/18 07:43:40;;;;;;;;;16.20;14.20;;;;;24.81;41.38;99620.50;5097210;28;8934;-58
2023/06/18 07:46:08;;;;;;;;;17.60;17.20;;;;;24.92;40.93;99626.06;5096744;28;8849;-58
2023/06/18 07:48:37;;;;;;;;;18.80;16.20;;;;;25.03;41.27;99621.81;5096152;28;8825;-58
2023/06/18 07:51:05;;;;;;;;;15.40;14.80;;;;;25.13;41.28;99616.69;5096856;28;8937;-59
2023/06/18 07:53:33;;;;;;;;;18.20;16.00;;;;;25.21;41.07;99611.78;5096733;28;8841;-58
2023/06/18 07:59:05;;;;;;;;;18.40;17.60;;;;;25.50;40.81;99613.00;5097831;28;8797;-58
2023/06/18 08:10:54;;;;;;;;;15.80;15.00;;;;;26.00;40.59;99616.22;5096566;28;8786;-57
2023/06/18 08:13:22;;;;;;;;;12.60;11.00;;;;;26.07;40.55;99608.78;5095611;28;8871;-57
2023/06/18 08:15:49;;;;;;;;;15.20;14.00;;;;;26.13;40.45;99598.84;5094745;28;8961;-57
2023/06/18 08:18:17;;;;;;;;;19.40;17.60;;;;;26.23;40.21;99602.69;5094946;28;8853;-57
2023/06/18 08:20:45;;;;;;;;;19.00;16.20;;;;;26.31;40.31;99601.53;5094611;28;8845;-58
2023/06/18 08:23:15;;;;;;;;;12.60;11.80;;;;;26.38;40.50;99597.66;5095053;28;8825;-59
2023/06/18 08:25:43;;;;;;;;;10.60;10.60;;;;;26.50;39.78;99595.78;5094845;28;8837;-56
2023/06/18 08:28:11;;;;;;;;;15.60;14.40;;;;;26.65;39.82;99595.41;5094315;28;8883;-58
2023/06/18 08:30:38;;;;;;;;;20.00;16.60;;;;;26.80;39.22;99590.34;5094572;28;8909;-57
2023/06/18 08:33:06;;;;;;;;;17.60;14.20;;;;;26.99;39.42;99589.16;5094979;28;8825;-57
2023/06/18 08:35:37;;;;;;;;;18.80;18.00;;;;;27.16;39.35;99596.47;5095113;28;8864;-57
2023/06/18 08:38:05;;;;;;;;;15.20;14.80;;;;;27.33;38.75;99602.88;5094398;28;8845;-58
2023/06/18 08:40:33;;;;;;;;;13.80;13.60;;;;;27.50;38.99;99603.03;5094591;28;8877;-58
2023/06/18 08:43:01;;;;;;;;;13.00;12.00;;;;;27.58;38.68;99589.81;5095263;28;8857;-57
2023/06/18 08:45:34;;;;;;;;;12.80;12.80;;;;;27.69;38.46;99591.69;5094227;28;8836;-58
2023/06/18 08:48:02;;;;;;;;;17.40;14.20;;;;;27.75;38.48;99593.50;5094687;28;8841;-56
2023/06/18 08:50:46;;;;;;;;;13.00;11.80;;;;;27.81;38.24;99595.28;5095092;28;8853;-56
2023/06/18 08:53:14;;;;;;;;;12.40;12.00;;;;;27.89;37.98;99592.16;5093835;28;8861;-57
2023/06/18 08:55:42;;;;;;;;;8.80;8.80;;;;;27.99;37.82;99592.38;5094464;28;8896;-57
2023/06/18 08:58:09;;;;;;;;;12.20;10.40;;;;;28.13;37.21;99585.53;5094156;28;8845;-56
2023/06/18 09:00:38;;;;;;;;;15.20;13.20;;;;;28.27;37.68;99583.34;5094596;28;8930;-57
2023/06/18 09:03:06;;;;;;;;;10.60;9.80;;;;;28.36;36.56;99585.50;5094262;28;8852;-56
2023/06/18 09:05:34;;;;;;;;;13.40;12.60;;;;;28.47;37.32;99583.78;5095466;28;8955;-56
2023/06/18 09:08:02;;;;;;;;;10.40;10.00;;;;;28.64;36.80;99579.16;5095153;28;9692;-57
2023/06/18 09:10:30;;;;;;;;;13.60;12.40;;;;;28.82;36.39;99579.75;5094508;28;8853;-57
2023/06/18 09:12:58;;;;;;;;;14.00;13.60;;;;;29.00;36.39;99582.31;5095085;28;8861;-58
2023/06/18 09:15:26;;;;;;;;;13.80;13.80;;;;;29.17;36.27;99585.03;5094299;28;8837;-57
2023/06/18 09:17:54;;;;;;;;;10.20;10.20;;;;;29.29;36.05;99575.63;5094241;28;8930;-58
2023/06/18 09:20:23;;;;;;;;;14.60;14.20;;;;;29.42;35.82;99582.69;5094989;28;8857;-58
2023/06/18 09:22:51;;;;;;;;;10.20;9.80;;;;;29.50;35.66;99574.84;5094126;28;8841;-57
2023/06/18 09:25:18;;;;;;;;;14.60;12.00;;;;;29.55;35.77;99574.97;5093724;28;8822;-58
2023/06/18 09:27:47;;;;;;;;;15.60;15.00;;;;;29.63;34.95;99571.78;5093612;28;8853;-57
2023/06/18 09:30:15;;;;;;;;;11.80;11.00;;;;;29.67;35.27;99570.19;5093826;28;8852;-56
2023/06/18 09:32:43;;;;;;;;;11.80;11.60;;;;;29.66;35.48;99568.50;5094028;28;8841;-58
2023/06/18 09:35:12;;;;;;;;;11.80;11.20;;;;;29.62;34.80;99572.84;5094062;28;8849;-58
2023/06/18 09:37:41;;;;;;;;;16.40;12.80;;;;;29.63;34.57;99574.50;5093839;28;8845;-57
2023/06/18 09:40:09;;;;;;;;;16.00;15.00;;;;;29.70;34.50;99577.06;5092623;28;8918;-58
2023/06/18 09:42:40;;;;;;;;;14.80;13.00;;;;;29.78;34.46;99573.88;5093555;28;8896;-57
2023/06/18 09:45:08;;;;;;;;;15.40;14.20;;;;;29.88;34.47;99579.53;5092805;28;8863;-58
2023/06/18 09:47:36;;;;;;;;;11.20;10.00;;;;;30.00;34.17;99570.06;5092748;28;9005;-60
2023/06/18 09:50:04;;;;;;;;;13.20;11.00;;;;;30.17;34.22;99570.03;5091692;28;8968;-58
2023/06/18 09:52:32;;;;;;;;;12.00;11.60;;;;;30.33;33.71;99564.44;5092349;28;8861;-58
2023/06/18 09:55:00;;;;;;;;;11.00;10.80;;;;;30.37;33.48;99556.50;5092873;28;8837;-59
2023/06/18 09:57:28;;;;;;;;;15.20;13.00;;;;;30.44;33.76;99565.38;5094549;28;8934;-58
2023/06/18 09:59:58;;;;;;;;;11.60;10.20;;;;;30.48;33.38;99566.53;5092697;28;8934;-57
2023/06/18 10:02:26;;;;;;;;;12.40;12.40;;;;;30.62;33.22;99563.13;5093890;28;8841;-58
2023/06/18 10:04:54;;;;;;;;;14.80;14.00;;;;;30.81;33.08;99569.91;5093202;28;8833;-57
2023/06/18 10:07:22;;;;;;;;;11.60;11.00;;;;;30.92;33.07;99571.66;5093416;28;8845;-59
2023/06/18 10:09:50;;;;;;;;;13.20;12.60;;;;;31.13;32.38;99567.97;5093524;28;8845;-58
2023/06/18 10:12:19;;;;;;;;;12.40;12.40;;;;;31.37;31.95;99561.00;5092978;28;8869;-59
2023/06/18 10:14:47;;;;;;;;;14.60;13.40;;;;;31.70;31.88;99560.69;5092815;28;8829;-59
2023/06/18 10:17:15;;;;;;;;;11.00;10.20;;;;;32.00;31.54;99561.66;5093615;28;8856;-57
2023/06/18 10:19:43;;;;;;;;;12.00;11.40;;;;;32.22;31.22;99559.56;5094240;28;8841;-57
2023/06/18 10:22:12;;;;;;;;;12.00;10.00;;;;;32.44;30.63;99553.81;5093769;28;8983;-58
2023/06/18 10:24:40;;;;;;;;;13.40;12.40;;;;;32.68;29.99;99550.28;5093619;28;8825;-58
2023/06/18 10:27:09;;;;;;;;;13.20;12.20;;;;;32.91;30.25;99554.47;5093751;28;8837;-58
2023/06/18 10:29:37;;;;;;;;;13.20;12.60;;;;;33.23;29.88;99546.72;5093882;28;8960;-58
2023/06/18 10:32:05;;;;;;;;;11.80;11.80;;;;;33.58;29.76;99541.13;5093641;28;8988;-57
2023/06/18 10:34:33;;;;;;;;;11.60;10.80;;;;;33.93;29.41;99538.28;5094124;28;8845;-58
2023/06/18 10:37:01;;;;;;;;;14.00;13.80;;;;;34.30;28.48;99533.16;5093507;28;8855;-58
2023/06/18 10:39:30;;;;;;;;;14.40;13.80;;;;;34.52;28.46;99537.19;5093497;28;8845;-58
2023/06/18 10:41:58;;;;;;;;;13.40;12.60;;;;;34.83;28.07;99533.09;5093427;28;8849;-58
2023/06/18 10:44:26;;;;;;;;;11.80;11.00;;;;;35.20;27.62;99538.03;5094173;28;8837;-59
2023/06/18 10:46:54;;;;;;;;;10.20;9.60;;;;;35.48;28.03;99531.69;5093780;28;8833;-58
2023/06/18 10:49:22;;;;;;;;;12.00;10.40;;;;;35.79;27.52;99527.47;5097882;28;8849;-58
2023/06/18 10:51:51;;;;;;;;;11.00;10.60;;;;;36.09;27.21;99520.41;5097718;28;9560;-60
2023/06/18 10:54:19;;;;;;;;;10.60;10.20;;;;;36.32;26.72;99519.56;5096453;28;8864;-60
2023/06/18 10:56:47;;;;;;;;;12.80;11.80;;;;;36.56;27.20;99522.25;5096282;28;8875;-58
2023/06/18 10:59:15;;;;;;;;;10.20;10.00;;;;;36.79;26.58;99513.84;5096336;28;8837;-58
2023/06/18 11:01:43;;;;;;;;;10.60;10.00;;;;;37.10;26.72;99509.44;5096308;28;8902;-58
2023/06/18 11:04:11;;;;;;;;;12.20;11.80;;;;;37.33;25.74;99502.09;5096199;28;8891;-58
2023/06/18 11:06:40;;;;;;;;;14.60;12.60;;;;;37.45;26.07;99508.78;5096226;28;8837;-58
2023/06/18 11:09:08;;;;;;;;;12.20;11.60;;;;;37.68;25.84;99509.75;5096004;28;8856;-59
2023/06/18 11:11:35;;;;;;;;;10.40;10.20;;;;;37.86;25.66;99515.19;5095434;28;8845;-59
2023/06/18 11:14:04;;;;;;;;;10.80;10.40;;;;;38.05;25.15;99499.25;5095933;28;8904;-59
2023/06/18 11:16:33;;;;;;;;;11.60;11.00;;;;;38.33;25.16;99500.00;5095839;28;8852;-58
2023/06/18 11:19:03;;;;;;;;;14.60;13.00;;;;;38.11;25.28;99500.78;5095241;28;8926;-59
2023/06/18 11:21:35;;;;;;;;;13.40;13.40;;;;;37.41;25.85;99504.97;5095866;28;8860;-60
2023/06/18 11:24:03;;;;;;;;;13.80;12.60;;;;;36.67;26.64;99499.63;5075961;28;8882;-58
2023/06/18 11:26:31;;;;;;;;;11.80;11.20;;;;;35.97;27.81;99496.16;5076127;28;8872;-58
2023/06/18 11:28:59;;;;;;;;;9.80;9.80;;;;;35.38;27.51;99495.75;5076704;28;9555;-59
2023/06/18 11:31:27;;;;;;;;;13.60;13.40;;;;;35.37;27.40;99494.09;5075735;28;8868;-58
2023/06/18 11:33:55;;;;;;;;;10.80;10.00;;;;;35.69;27.01;99491.53;5075738;28;8900;-59
2023/06/18 11:36:23;;;;;;;;;12.20;11.40;;;;;36.22;27.16;99479.22;5075237;28;8978;-60
2023/06/18 11:38:52;;;;;;;;;13.20;12.20;;;;;36.70;26.41;99487.06;5075154;28;8897;-58
2023/06/18 11:41:20;;;;;;;;;12.40;12.00;;;;;37.12;25.51;99482.19;5076093;28;8978;-58
2023/06/18 11:43:48;;;;;;;;;11.20;11.20;;;;;37.46;25.60;99485.41;5076300;28;9109;-59